createdAt,value
2017-07-02T00:01:16.634Z,1.30
2017-07-02T00:03:44.096Z,0.80
2017-07-02T00:06:12.420Z,2.08
2017-07-02T00:08:39.887Z,0.93
2017-07-02T00:11:07.366Z,0.70
2017-07-02T00:13:34.870Z,0.60
2017-07-02T00:16:02.345Z,0.80
2017-07-02T00:18:29.835Z,0.70
2017-07-02T00:20:57.334Z,0.88
2017-07-02T00:23:25.605Z,0.80
2017-07-02T00:25:53.871Z,1.42
2017-07-02T00:28:21.342Z,1.00
2017-07-02T00:30:49.622Z,0.70
2017-07-02T00:33:17.861Z,2.15
2017-07-02T00:35:45.324Z,0.73
2017-07-02T00:38:12.825Z,0.70
2017-07-02T00:40:40.303Z,0.60
2017-07-02T00:43:07.792Z,0.88
2017-07-02T00:45:35.269Z,1.45
2017-07-02T00:48:02.760Z,2.08
2017-07-02T00:50:30.256Z,1.60
2017-07-02T00:52:57.736Z,0.65
2017-07-02T00:55:26.025Z,1.50
2017-07-02T00:57:54.264Z,1.62
2017-07-02T01:00:21.752Z,0.80
2017-07-02T01:02:49.221Z,0.70
2017-07-02T01:05:17.459Z,0.80
2017-07-02T01:07:44.946Z,1.30
2017-07-02T01:10:12.433Z,0.70
2017-07-02T01:12:39.932Z,1.98
2017-07-02T01:15:07.402Z,0.90
2017-07-02T01:17:34.873Z,0.80
2017-07-02T01:20:02.391Z,1.37
2017-07-02T01:22:29.880Z,0.75
2017-07-02T01:24:57.350Z,0.80
2017-07-02T01:27:24.845Z,1.40
2017-07-02T01:29:52.332Z,2.37
2017-07-02T01:32:19.795Z,1.00
2017-07-02T01:34:47.284Z,0.60
2017-07-02T01:37:14.761Z,0.65
2017-07-02T01:39:43.073Z,0.55
2017-07-02T01:42:10.567Z,0.60
2017-07-02T01:44:38.044Z,0.60
2017-07-02T01:47:06.292Z,0.60
2017-07-02T01:49:33.788Z,1.00
2017-07-02T01:52:02.051Z,0.70
2017-07-02T01:54:29.585Z,0.70
2017-07-02T01:56:57.066Z,0.60
2017-07-02T01:59:24.541Z,0.62
2017-07-02T02:02:04.668Z,0.60
2017-07-02T02:04:32.140Z,0.70
2017-07-02T02:06:59.630Z,1.85
2017-07-02T02:09:27.108Z,0.60
2017-07-02T02:11:54.568Z,0.70
2017-07-02T02:14:22.077Z,2.45
2017-07-02T02:16:50.316Z,0.60
2017-07-02T02:19:19.517Z,1.25
2017-07-02T02:21:47.012Z,0.60
2017-07-02T02:24:15.281Z,0.70
2017-07-02T02:26:42.761Z,0.60
2017-07-02T02:29:10.246Z,2.17
2017-07-02T02:31:37.729Z,0.60
2017-07-02T02:34:05.220Z,0.60
2017-07-02T02:36:33.464Z,1.25
2017-07-02T02:39:00.952Z,1.15
2017-07-02T02:41:29.197Z,1.10
2017-07-02T02:43:56.705Z,0.93
2017-07-02T02:46:24.957Z,3.25
2017-07-02T02:48:52.435Z,2.35
2017-07-02T02:51:20.693Z,0.60
2017-07-02T02:53:48.199Z,1.02
2017-07-02T02:56:15.688Z,0.98
2017-07-02T02:58:43.156Z,1.73
2017-07-02T03:01:10.624Z,0.70
2017-07-02T03:03:38.883Z,0.95
2017-07-02T03:06:06.384Z,0.75
2017-07-02T03:08:34.454Z,0.95
2017-07-02T03:11:02.704Z,1.00
2017-07-02T03:13:31.703Z,1.27
2017-07-02T03:15:59.962Z,1.80
2017-07-02T03:18:27.432Z,2.00
2017-07-02T03:20:54.905Z,1.77
2017-07-02T03:23:24.644Z,1.25
2017-07-02T03:25:52.111Z,0.60
2017-07-02T03:28:20.579Z,0.60
2017-07-02T03:30:48.091Z,0.65
2017-07-02T03:33:15.580Z,1.02
2017-07-02T03:35:43.047Z,1.50
2017-07-02T03:38:10.709Z,0.95
2017-07-02T03:40:38.187Z,1.02
2017-07-02T03:43:05.677Z,1.33
2017-07-02T03:45:33.148Z,0.88
2017-07-02T03:48:00.644Z,1.35
2017-07-02T03:50:28.245Z,1.45
2017-07-02T03:52:55.731Z,1.52
2017-07-02T03:55:24.540Z,2.90
2017-07-02T03:57:52.056Z,3.22
2017-07-02T04:00:19.529Z,1.50
2017-07-02T04:02:47.041Z,1.10
2017-07-02T04:05:15.057Z,1.10
2017-07-02T04:07:42.540Z,1.67
2017-07-02T04:10:10.792Z,2.15
2017-07-02T04:12:38.268Z,3.72
2017-07-02T04:15:06.525Z,2.05
2017-07-02T04:17:34.021Z,2.08
2017-07-02T04:20:02.038Z,0.95
2017-07-02T04:22:29.524Z,2.62
2017-07-02T04:24:57.775Z,1.55
2017-07-02T04:27:25.268Z,1.00
2017-07-02T04:29:52.749Z,1.67
2017-07-02T04:32:20.225Z,1.80
2017-07-02T04:34:47.718Z,3.55
2017-07-02T04:37:15.188Z,1.00
2017-07-02T04:39:43.861Z,1.73
2017-07-02T04:42:11.340Z,2.10
2017-07-02T04:44:39.596Z,1.45
2017-07-02T04:47:07.587Z,1.33
2017-07-02T04:49:35.849Z,3.95
2017-07-02T04:52:04.178Z,1.20
2017-07-02T04:54:31.646Z,2.17
2017-07-02T04:56:59.137Z,0.95
2017-07-02T04:59:26.643Z,2.97
2017-07-02T05:01:54.124Z,3.78
2017-07-02T05:04:21.647Z,3.00
2017-07-02T05:06:49.125Z,4.40
2017-07-02T05:09:16.641Z,5.35
2017-07-02T05:11:44.104Z,3.30
2017-07-02T05:14:12.401Z,9.60
2017-07-02T05:16:39.888Z,15.35
2017-07-02T05:19:07.369Z,17.02
2017-07-02T05:21:34.869Z,16.98
2017-07-02T05:24:02.361Z,16.85
2017-07-02T05:26:29.841Z,15.15
2017-07-02T05:28:57.345Z,18.65
2017-07-02T05:31:24.832Z,22.33
2017-07-02T05:33:52.328Z,19.73
2017-07-02T05:36:19.814Z,19.02
2017-07-02T05:38:47.332Z,23.20
2017-07-02T05:41:14.862Z,19.83
2017-07-02T05:43:42.396Z,23.80
2017-07-02T05:46:09.895Z,21.50
2017-07-02T05:48:37.383Z,21.48
2017-07-02T05:51:04.885Z,24.17
2017-07-02T05:53:32.396Z,22.25
2017-07-02T05:55:59.901Z,20.02
2017-07-02T05:58:27.392Z,23.62
2017-07-02T06:00:54.892Z,25.85
2017-07-02T06:03:23.149Z,22.58
2017-07-02T06:05:50.659Z,25.62
2017-07-02T06:08:18.141Z,22.55
2017-07-02T06:10:45.655Z,24.15
2017-07-02T06:13:13.138Z,23.23
2017-07-02T06:15:40.635Z,24.85
2017-07-02T06:18:08.141Z,25.25
2017-07-02T06:20:35.629Z,25.70
2017-07-02T06:23:03.107Z,25.40
2017-07-02T06:25:30.629Z,22.13
2017-07-02T06:27:58.109Z,27.70
2017-07-02T06:30:25.612Z,25.73
2017-07-02T06:32:53.890Z,23.85
2017-07-02T06:35:22.161Z,24.85
2017-07-02T06:37:50.411Z,26.52
2017-07-02T06:40:17.917Z,26.52
2017-07-02T06:42:45.405Z,27.15
2017-07-02T06:45:12.928Z,26.65
2017-07-02T06:47:40.414Z,20.73
2017-07-02T06:50:07.927Z,22.93
2017-07-02T06:52:36.193Z,23.62
2017-07-02T06:55:03.674Z,22.17
2017-07-02T06:57:31.178Z,23.23
2017-07-02T06:59:58.674Z,25.03
2017-07-02T07:02:26.171Z,24.50
2017-07-02T07:04:53.653Z,24.20
2017-07-02T07:07:21.172Z,24.87
2017-07-02T07:09:49.444Z,23.70
2017-07-02T07:12:17.725Z,20.07
2017-07-02T07:14:45.243Z,24.30
2017-07-02T07:17:12.717Z,23.33
2017-07-02T07:19:40.997Z,20.93
2017-07-02T07:22:09.254Z,20.90
2017-07-02T07:24:36.745Z,17.93
2017-07-02T07:27:05.049Z,19.60
2017-07-02T07:29:32.524Z,21.60
2017-07-02T07:32:00.033Z,17.20
2017-07-02T07:34:28.296Z,20.47
2017-07-02T07:36:56.568Z,15.67
2017-07-02T07:39:24.082Z,15.37
2017-07-02T07:41:51.567Z,13.77
2017-07-02T07:44:19.078Z,18.50
2017-07-02T07:46:46.570Z,15.47
2017-07-02T07:49:14.074Z,17.53
2017-07-02T07:51:42.324Z,17.37
2017-07-02T07:54:09.840Z,19.67
2017-07-02T07:56:37.332Z,19.77
2017-07-02T07:59:04.817Z,15.80
2017-07-02T08:01:32.325Z,21.03
2017-07-02T08:03:59.812Z,14.47
2017-07-02T08:06:27.324Z,17.77
2017-07-02T08:08:54.812Z,16.07
2017-07-02T08:11:22.291Z,14.73
2017-07-02T08:13:49.804Z,17.50
2017-07-02T08:16:17.300Z,16.10
2017-07-02T08:18:45.061Z,19.10
2017-07-02T08:21:12.572Z,17.90
2017-07-02T08:23:40.059Z,14.13
2017-07-02T08:26:07.558Z,15.90
2017-07-02T08:28:35.038Z,15.20
2017-07-02T08:31:03.326Z,14.43
2017-07-02T08:33:30.812Z,16.00
2017-07-02T08:35:58.305Z,14.90
2017-07-02T08:38:25.811Z,14.03
2017-07-02T08:40:53.297Z,14.73
2017-07-02T08:43:20.810Z,13.73
2017-07-02T08:45:49.062Z,13.37
2017-07-02T08:48:17.327Z,14.10
2017-07-02T08:50:44.821Z,13.27
2017-07-02T08:53:12.325Z,17.77
2017-07-02T08:55:39.840Z,16.33
2017-07-02T08:58:07.321Z,15.60
2017-07-02T09:00:34.805Z,12.87
2017-07-02T09:03:02.317Z,13.03
2017-07-02T09:05:29.801Z,19.80
2017-07-02T09:07:57.321Z,12.47
2017-07-02T09:10:25.568Z,14.03
2017-07-02T09:12:53.055Z,12.40
2017-07-02T09:15:21.728Z,14.47
2017-07-02T09:17:49.570Z,12.63
2017-07-02T09:20:17.108Z,13.33
2017-07-02T09:22:44.588Z,12.77
2017-07-02T09:25:12.083Z,14.90
2017-07-02T09:27:40.331Z,11.73
2017-07-02T09:30:07.815Z,11.03
2017-07-02T09:32:36.069Z,11.30
2017-07-02T09:35:03.557Z,9.43
2017-07-02T09:37:31.072Z,9.27
2017-07-02T09:39:58.602Z,10.30
2017-07-02T09:42:26.078Z,8.40
2017-07-02T09:44:53.588Z,7.40
2017-07-02T09:47:21.836Z,6.33
2017-07-02T09:49:49.357Z,9.60
2017-07-02T09:52:16.842Z,8.23
2017-07-02T09:54:44.334Z,7.33
2017-07-02T09:57:12.572Z,7.20
2017-07-02T09:59:40.055Z,5.73
2017-07-02T10:02:07.564Z,7.20
2017-07-02T10:04:35.417Z,9.97
2017-07-02T10:07:03.668Z,5.83
2017-07-02T10:09:32.264Z,6.03
2017-07-02T10:12:00.996Z,5.63
2017-07-02T10:14:28.489Z,8.13
2017-07-02T10:16:55.999Z,7.13
2017-07-02T10:19:23.504Z,6.33
2017-07-02T10:21:50.984Z,7.03
2017-07-02T10:24:19.278Z,7.80
2017-07-02T10:26:47.096Z,8.10
2017-07-02T10:29:14.633Z,6.93
2017-07-02T10:31:42.177Z,5.57
2017-07-02T10:34:09.664Z,6.37
2017-07-02T10:36:37.215Z,5.90
2017-07-02T10:39:04.696Z,7.47
2017-07-02T10:41:32.218Z,6.80
2017-07-02T10:43:59.702Z,6.20
2017-07-02T10:46:27.221Z,6.20
2017-07-02T10:48:54.716Z,5.43
2017-07-02T10:51:22.233Z,5.40
2017-07-02T10:53:49.734Z,5.40
2017-07-02T10:56:17.244Z,5.00
2017-07-02T10:58:44.742Z,5.33
2017-07-02T11:01:12.985Z,4.83
2017-07-02T11:03:40.444Z,6.10
2017-07-02T11:06:07.950Z,5.67
2017-07-02T11:08:35.466Z,6.10
2017-07-02T11:11:02.955Z,5.73
2017-07-02T11:13:31.196Z,6.87
2017-07-02T11:15:58.666Z,4.87
2017-07-02T11:18:26.159Z,5.33
2017-07-02T11:20:53.649Z,5.27
2017-07-02T11:23:21.141Z,4.63
2017-07-02T11:25:48.626Z,5.50
2017-07-02T11:28:16.888Z,5.13
2017-07-02T11:30:45.145Z,5.50
2017-07-02T11:33:12.612Z,5.17
2017-07-02T11:35:40.108Z,6.50
2017-07-02T11:38:07.605Z,6.73
2017-07-02T11:40:35.115Z,5.97
2017-07-02T11:43:04.337Z,5.97
2017-07-02T11:45:31.850Z,5.40
2017-07-02T11:48:00.091Z,5.30
2017-07-02T11:50:27.577Z,5.17
2017-07-02T11:52:55.081Z,6.27
2017-07-02T11:55:22.608Z,5.23
2017-07-02T11:57:50.886Z,5.03
2017-07-02T12:00:19.137Z,5.43
2017-07-02T12:02:46.633Z,5.47
2017-07-02T12:05:14.104Z,3.30
2017-07-02T12:07:41.581Z,3.67
2017-07-02T12:10:09.077Z,3.37
2017-07-02T12:12:36.548Z,5.80
2017-07-02T12:15:04.835Z,4.33
2017-07-02T12:17:33.144Z,3.27
2017-07-02T12:20:00.625Z,2.50
2017-07-02T12:22:28.118Z,3.40
2017-07-02T12:24:56.392Z,1.90
2017-07-02T12:27:24.640Z,3.60
2017-07-02T12:29:52.173Z,2.37
2017-07-02T12:32:19.666Z,4.30
2017-07-02T12:34:47.191Z,3.10
2017-07-02T12:37:14.709Z,3.40
2017-07-02T12:39:42.961Z,4.17
2017-07-02T12:42:10.442Z,4.03
2017-07-02T12:44:38.767Z,5.13
2017-07-02T12:47:06.244Z,3.40
2017-07-02T12:49:33.776Z,6.50
2017-07-02T12:52:01.251Z,5.03
2017-07-02T12:54:28.752Z,4.60
2017-07-02T12:56:57.074Z,3.40
2017-07-02T12:59:24.550Z,4.27
2017-07-02T13:01:52.088Z,2.50
2017-07-02T13:04:19.559Z,4.20
2017-07-02T13:06:47.105Z,7.80
2017-07-02T13:09:14.587Z,5.57
2017-07-02T13:11:42.226Z,3.70
2017-07-02T13:14:09.704Z,5.00
2017-07-02T13:16:37.189Z,3.93
2017-07-02T13:19:05.494Z,3.20
2017-07-02T13:21:33.754Z,3.33
2017-07-02T13:24:02.010Z,6.27
2017-07-02T13:26:31.653Z,5.93
2017-07-02T13:28:59.130Z,2.83
2017-07-02T13:31:26.639Z,5.20
2017-07-02T13:33:54.115Z,3.13
2017-07-02T13:36:21.632Z,2.90
2017-07-02T13:38:49.126Z,3.07
2017-07-02T13:41:16.600Z,3.53
2017-07-02T13:43:44.092Z,3.40
2017-07-02T13:46:12.348Z,3.47
2017-07-02T13:48:39.859Z,3.40
2017-07-02T13:51:07.357Z,5.20
2017-07-02T13:53:34.857Z,8.80
2017-07-02T13:56:02.345Z,4.57
2017-07-02T13:58:29.832Z,4.23
2017-07-02T14:00:57.363Z,4.90
2017-07-02T14:03:24.849Z,5.80
2017-07-02T14:05:52.375Z,4.40
2017-07-02T14:08:19.845Z,4.00
2017-07-02T14:10:47.359Z,4.47
2017-07-02T14:13:15.605Z,5.90
2017-07-02T14:15:43.125Z,7.50
2017-07-02T14:18:10.606Z,4.63
2017-07-02T14:20:38.114Z,4.20
2017-07-02T14:23:05.602Z,3.80
2017-07-02T14:25:33.086Z,4.20
2017-07-02T14:28:00.575Z,6.03
2017-07-02T14:30:28.809Z,5.53
2017-07-02T14:32:56.322Z,4.87
2017-07-02T14:35:24.565Z,4.00
2017-07-02T14:37:52.201Z,4.03
2017-07-02T14:40:19.695Z,4.17
2017-07-02T14:42:47.204Z,4.53
2017-07-02T14:45:14.695Z,4.37
2017-07-02T14:47:42.180Z,3.90
2017-07-02T14:50:10.425Z,4.10
2017-07-02T14:52:37.931Z,3.17
2017-07-02T14:55:05.398Z,5.43
2017-07-02T14:57:32.860Z,3.47
2017-07-02T15:00:00.364Z,3.33
2017-07-02T15:02:27.865Z,4.00
2017-07-02T15:04:55.395Z,3.07
2017-07-02T15:07:22.869Z,2.83
2017-07-02T15:09:50.366Z,4.03
2017-07-02T15:12:17.870Z,3.73
2017-07-02T15:14:45.375Z,4.73
2017-07-02T15:17:12.888Z,4.70
2017-07-02T15:19:40.380Z,3.47
2017-07-02T15:22:07.868Z,3.47
2017-07-02T15:24:36.108Z,4.00
2017-07-02T15:27:03.648Z,3.75
2017-07-02T15:29:31.133Z,3.17
2017-07-02T15:31:58.612Z,4.95
2017-07-02T15:34:26.893Z,3.17
2017-07-02T15:36:55.149Z,3.60
2017-07-02T15:39:22.660Z,3.93
2017-07-02T15:41:50.153Z,4.23
2017-07-02T15:44:17.642Z,4.25
2017-07-02T15:46:45.915Z,4.05
2017-07-02T15:49:14.168Z,4.63
2017-07-02T15:51:41.666Z,5.15
2017-07-02T15:54:09.157Z,7.78
2017-07-02T15:56:36.669Z,6.35
2017-07-02T15:59:04.919Z,4.07
2017-07-02T16:01:32.445Z,3.90
2017-07-02T16:03:59.961Z,3.07
2017-07-02T16:06:28.395Z,5.73
2017-07-02T16:08:57.601Z,3.30
2017-07-02T16:11:26.171Z,8.33
2017-07-02T16:13:54.274Z,2.87
2017-07-02T16:16:21.991Z,3.35
2017-07-02T16:18:51.775Z,2.67
2017-07-02T16:21:21.620Z,3.47
2017-07-02T16:23:50.318Z,3.63
2017-07-02T16:26:18.521Z,3.27
2017-07-02T16:28:46.043Z,3.23
2017-07-02T16:31:13.511Z,3.50
2017-07-02T16:33:41.010Z,2.70
2017-07-02T16:36:08.493Z,5.80
2017-07-02T16:38:36.001Z,2.37
2017-07-02T16:41:04.246Z,3.30
2017-07-02T16:43:31.743Z,2.20
2017-07-02T16:46:00.017Z,2.70
2017-07-02T16:48:28.293Z,2.60
2017-07-02T16:50:56.556Z,2.50
2017-07-02T16:53:24.037Z,2.70
2017-07-02T16:55:52.308Z,2.87
2017-07-02T16:58:20.560Z,2.73
2017-07-02T17:00:48.036Z,2.70
2017-07-02T17:03:15.560Z,3.50
2017-07-02T17:05:43.042Z,3.40
2017-07-02T17:08:10.533Z,2.37
2017-07-02T17:10:38.026Z,2.07
2017-07-02T17:13:05.538Z,2.47
2017-07-02T17:15:33.780Z,1.87
2017-07-02T17:18:01.254Z,2.43
2017-07-02T17:20:28.749Z,2.10
2017-07-02T17:22:56.269Z,2.00
2017-07-02T17:25:23.760Z,2.07
2017-07-02T17:27:51.248Z,3.13
2017-07-02T17:30:18.748Z,4.93
2017-07-02T17:32:46.252Z,1.73
2017-07-02T17:35:13.732Z,4.30
2017-07-02T17:37:41.244Z,2.03
2017-07-02T17:40:09.502Z,2.87
2017-07-02T17:42:37.021Z,2.90
2017-07-02T17:45:04.513Z,2.60
2017-07-02T17:47:31.993Z,2.03
2017-07-02T17:50:00.249Z,4.23
2017-07-02T17:52:27.748Z,2.07
2017-07-02T17:54:55.258Z,1.67
2017-07-02T17:57:22.886Z,2.05
2017-07-02T17:59:50.362Z,3.60
2017-07-02T18:02:17.861Z,2.10
2017-07-02T18:04:46.113Z,1.40
2017-07-02T18:07:13.637Z,4.47
2017-07-02T18:09:41.119Z,1.55
2017-07-02T18:12:08.625Z,2.80
2017-07-02T18:14:36.867Z,2.20
2017-07-02T18:17:04.357Z,1.90
2017-07-02T18:19:32.642Z,3.13
2017-07-02T18:22:00.117Z,1.80
2017-07-02T18:24:27.613Z,2.27
2017-07-02T18:26:55.147Z,4.70
2017-07-02T18:29:22.661Z,2.27
2017-07-02T18:31:50.927Z,2.00
2017-07-02T18:34:19.182Z,3.80
2017-07-02T18:36:46.709Z,1.53
2017-07-02T18:39:14.222Z,1.50
2017-07-02T18:41:42.501Z,1.70
2017-07-02T18:44:10.873Z,2.55
2017-07-02T18:46:38.358Z,1.40
2017-07-02T18:49:05.881Z,3.40
2017-07-02T18:51:33.356Z,1.97
2017-07-02T18:54:01.614Z,1.63
2017-07-02T18:56:29.123Z,1.57
2017-07-02T18:58:56.626Z,3.33
2017-07-02T19:01:24.120Z,1.50
2017-07-02T19:03:53.461Z,1.62
2017-07-02T19:06:22.502Z,1.70
2017-07-02T19:08:51.152Z,2.00
2017-07-02T19:11:18.652Z,1.70
2017-07-02T19:13:46.153Z,2.83
2017-07-02T19:16:13.672Z,1.40
2017-07-02T19:18:41.138Z,1.60
2017-07-02T19:21:09.401Z,1.90
2017-07-02T19:23:36.912Z,2.00
2017-07-02T19:26:04.437Z,1.75
2017-07-02T19:28:32.681Z,1.62
2017-07-02T19:31:00.204Z,1.67
2017-07-02T19:33:27.739Z,1.70
2017-07-02T19:35:55.231Z,1.90
2017-07-02T19:38:22.727Z,1.60
2017-07-02T19:40:50.200Z,1.40
2017-07-02T19:43:18.534Z,1.27
2017-07-02T19:45:46.033Z,1.33
2017-07-02T19:48:14.321Z,1.10
2017-07-02T19:50:42.570Z,1.10
2017-07-02T19:53:10.070Z,1.10
2017-07-02T19:55:37.576Z,1.15
2017-07-02T19:58:05.054Z,4.22
2017-07-02T20:00:32.570Z,1.50
2017-07-02T20:03:00.061Z,1.12
2017-07-02T20:05:28.340Z,0.77
2017-07-02T20:07:55.894Z,0.70
2017-07-02T20:10:23.385Z,0.70
2017-07-02T20:12:51.635Z,0.70
2017-07-02T20:15:19.143Z,0.80
2017-07-02T20:17:46.623Z,0.70
2017-07-02T20:20:14.113Z,1.12
2017-07-02T20:22:41.620Z,0.70
2017-07-02T20:25:09.139Z,1.30
2017-07-02T20:27:36.639Z,2.00
2017-07-02T20:30:04.120Z,2.58
2017-07-02T20:32:31.633Z,3.17
2017-07-02T20:34:59.872Z,2.00
2017-07-02T20:37:27.398Z,1.70
2017-07-02T20:39:54.894Z,1.52
2017-07-02T20:42:22.380Z,1.17
2017-07-02T20:44:50.652Z,0.80
2017-07-02T20:47:18.891Z,0.80
2017-07-02T20:49:46.396Z,0.80
2017-07-02T20:52:14.655Z,0.75
2017-07-02T20:54:42.920Z,0.62
2017-07-02T20:57:10.458Z,0.70
2017-07-02T20:59:37.956Z,1.15
2017-07-02T21:02:06.224Z,0.60
2017-07-02T21:04:34.497Z,1.27
2017-07-02T21:07:01.985Z,0.62
2017-07-02T21:09:29.523Z,0.70
2017-07-02T21:11:57.006Z,0.75
2017-07-02T21:14:24.497Z,0.70
2017-07-02T21:16:51.978Z,0.85
2017-07-02T21:19:19.462Z,1.37
2017-07-02T21:21:47.736Z,0.70
2017-07-02T21:24:15.992Z,0.70
2017-07-02T21:26:43.528Z,0.80
2017-07-02T21:29:11.033Z,0.90
2017-07-02T21:31:39.313Z,0.70
2017-07-02T21:34:06.821Z,0.80
2017-07-02T21:36:34.336Z,0.98
2017-07-02T21:39:01.858Z,1.08
2017-07-02T21:41:29.348Z,1.20
2017-07-02T21:43:56.839Z,0.93
2017-07-02T21:46:25.090Z,0.90
2017-07-02T21:48:52.584Z,2.17
2017-07-02T21:51:20.070Z,1.20
2017-07-02T21:53:47.637Z,1.35
2017-07-02T21:56:15.123Z,1.30
2017-07-02T21:58:42.603Z,1.08
2017-07-02T22:01:10.889Z,1.40
2017-07-02T22:03:39.133Z,1.12
2017-07-02T22:06:06.659Z,1.92
2017-07-02T22:08:34.133Z,1.80
2017-07-02T22:11:01.824Z,1.27
2017-07-02T22:13:29.325Z,1.50
2017-07-02T22:15:56.809Z,1.70
2017-07-02T22:18:24.306Z,1.30
2017-07-02T22:20:52.571Z,4.72
2017-07-02T22:23:20.075Z,2.00
2017-07-02T22:25:47.578Z,1.35
2017-07-02T22:28:15.059Z,3.25
2017-07-02T22:30:42.553Z,2.10
2017-07-02T22:33:10.037Z,4.20
2017-07-02T22:35:37.529Z,2.17
2017-07-02T22:38:05.029Z,4.93
2017-07-02T22:40:32.504Z,2.80
2017-07-02T22:42:59.987Z,4.82
2017-07-02T22:45:27.480Z,1.75
2017-07-02T22:47:55.749Z,1.75
2017-07-02T22:50:24.024Z,2.03
2017-07-02T22:52:52.288Z,3.70
2017-07-02T22:55:19.761Z,1.50
2017-07-02T22:57:48.030Z,1.45
2017-07-02T23:00:15.538Z,1.80
2017-07-02T23:02:43.046Z,3.53
2017-07-02T23:05:11.311Z,2.08
2017-07-02T23:07:38.800Z,2.28
2017-07-02T23:10:07.040Z,5.05
2017-07-02T23:12:34.533Z,1.73
2017-07-02T23:15:02.779Z,7.20
2017-07-02T23:17:30.263Z,2.50
2017-07-02T23:19:58.578Z,2.55
2017-07-02T23:22:26.061Z,2.90
2017-07-02T23:24:53.539Z,3.53
2017-07-02T23:27:21.024Z,3.40
2017-07-02T23:29:48.500Z,2.53
2017-07-02T23:32:16.000Z,3.97
2017-07-02T23:34:43.530Z,3.58
2017-07-02T23:37:11.043Z,2.50
2017-07-02T23:39:39.276Z,3.08
2017-07-02T23:42:06.761Z,3.20
2017-07-02T23:44:34.264Z,3.60
2017-07-02T23:47:01.749Z,4.10
2017-07-02T23:49:29.245Z,2.95
2017-07-02T23:51:57.490Z,3.97
2017-07-02T23:54:24.985Z,6.53
2017-07-02T23:56:53.236Z,3.92
2017-07-02T23:59:20.713Z,3.12
